sensor_id;sensor_type;location;lat;lon;timestamp;P1;durP1;ratioP1;P2;durP2;ratioP2
3343;SDS011;1685;53.104;8.228;2023-04-12T00:02:12;8.40;;;2.70;;
3343;SDS011;1685;53.104;8.228;2023-04-12T00:04:39;14.07;;;2.60;;
3343;SDS011;1685;53.104;8.228;2023-04-12T00:07:08;12.50;;;2.77;;
3343;SDS011;1685;53.104;8.228;2023-04-12T00:09:36;3.47;;;2.50;;
3343;SDS011;1685;53.104;8.228;2023-04-12T00:12:03;7.10;;;3.23;;
3343;SDS011;1685;53.104;8.228;2023-04-12T00:14:31;6.20;;;3.03;;
3343;SDS011;1685;53.104;8.228;2023-04-12T00:16:58;8.47;;;2.87;;
3343;SDS011;1685;53.104;8.228;2023-04-12T00:19:25;3.43;;;2.43;;
3343;SDS011;1685;53.104;8.228;2023-04-12T00:21:55;5.40;;;2.20;;
3343;SDS011;1685;53.104;8.228;2023-04-12T00:24:23;13.90;;;3.07;;
3343;SDS011;1685;53.104;8.228;2023-04-12T00:26:51;5.23;;;3.60;;
3343;SDS011;1685;53.104;8.228;2023-04-12T00:29:18;5.70;;;3.63;;
3343;SDS011;1685;53.104;8.228;2023-04-12T00:31:45;7.10;;;2.67;;
3343;SDS011;1685;53.104;8.228;2023-04-12T00:34:12;5.17;;;2.80;;
3343;SDS011;1685;53.104;8.228;2023-04-12T00:36:39;3.43;;;2.03;;
3343;SDS011;1685;53.104;8.228;2023-04-12T00:39:07;7.60;;;2.47;;
3343;SDS011;1685;53.104;8.228;2023-04-12T00:41:36;7.03;;;2.83;;
3343;SDS011;1685;53.104;8.228;2023-04-12T00:44:03;7.07;;;1.73;;
3343;SDS011;1685;53.104;8.228;2023-04-12T00:46:31;8.37;;;2.07;;
3343;SDS011;1685;53.104;8.228;2023-04-12T00:48:59;5.70;;;2.33;;
3343;SDS011;1685;53.104;8.228;2023-04-12T00:51:26;9.83;;;2.30;;
3343;SDS011;1685;53.104;8.228;2023-04-12T00:53:58;2.60;;;1.73;;
3343;SDS011;1685;53.104;8.228;2023-04-12T00:56:25;5.47;;;1.93;;
3343;SDS011;1685;53.104;8.228;2023-04-12T00:58:53;4.47;;;2.20;;
3343;SDS011;1685;53.104;8.228;2023-04-12T01:01:21;8.50;;;2.23;;
3343;SDS011;1685;53.104;8.228;2023-04-12T01:03:48;5.60;;;2.17;;
3343;SDS011;1685;53.104;8.228;2023-04-12T01:06:18;7.07;;;2.47;;
3343;SDS011;1685;53.104;8.228;2023-04-12T01:08:55;6.70;;;2.63;;
3343;SDS011;1685;53.104;8.228;2023-04-12T01:11:27;3.07;;;1.43;;
3343;SDS011;1685;53.104;8.228;2023-04-12T01:13:58;5.53;;;2.37;;
3343;SDS011;1685;53.104;8.228;2023-04-12T01:16:27;3.40;;;2.30;;
3343;SDS011;1685;53.104;8.228;2023-04-12T01:18:58;5.00;;;2.00;;
3343;SDS011;1685;53.104;8.228;2023-04-12T01:21:28;7.60;;;2.10;;
3343;SDS011;1685;53.104;8.228;2023-04-12T01:24:08;10.47;;;2.00;;
3343;SDS011;1685;53.104;8.228;2023-04-12T01:26:38;2.70;;;1.80;;
3343;SDS011;1685;53.104;8.228;2023-04-12T01:29:10;8.70;;;2.80;;
3343;SDS011;1685;53.104;8.228;2023-04-12T01:31:39;3.43;;;3.07;;
3343;SDS011;1685;53.104;8.228;2023-04-12T01:34:06;5.07;;;2.00;;
3343;SDS011;1685;53.104;8.228;2023-04-12T01:36:35;2.23;;;2.00;;
3343;SDS011;1685;53.104;8.228;2023-04-12T01:39:03;5.90;;;1.80;;
3343;SDS011;1685;53.104;8.228;2023-04-12T01:41:30;5.57;;;2.13;;
3343;SDS011;1685;53.104;8.228;2023-04-12T01:43:58;7.97;;;1.70;;
3343;SDS011;1685;53.104;8.228;2023-04-12T01:46:26;3.67;;;1.83;;
3343;SDS011;1685;53.104;8.228;2023-04-12T01:48:54;2.60;;;1.73;;
3343;SDS011;1685;53.104;8.228;2023-04-12T01:51:26;6.27;;;2.13;;
3343;SDS011;1685;53.104;8.228;2023-04-12T01:53:55;5.00;;;2.60;;
3343;SDS011;1685;53.104;8.228;2023-04-12T01:56:23;4.33;;;1.83;;
3343;SDS011;1685;53.104;8.228;2023-04-12T01:58:50;11.73;;;2.53;;
3343;SDS011;1685;53.104;8.228;2023-04-12T02:01:17;2.77;;;2.17;;
3343;SDS011;1685;53.104;8.228;2023-04-12T02:03:46;3.17;;;2.03;;
3343;SDS011;1685;53.104;8.228;2023-04-12T02:06:15;4.60;;;1.70;;
3343;SDS011;1685;53.104;8.228;2023-04-12T02:08:43;2.23;;;2.00;;
3343;SDS011;1685;53.104;8.228;2023-04-12T02:11:11;5.13;;;2.10;;
3343;SDS011;1685;53.104;8.228;2023-04-12T02:13:38;4.27;;;2.30;;
3343;SDS011;1685;53.104;8.228;2023-04-12T02:16:06;3.60;;;2.10;;
3343;SDS011;1685;53.104;8.228;2023-04-12T02:18:34;4.60;;;2.00;;
3343;SDS011;1685;53.104;8.228;2023-04-12T02:21:03;2.10;;;1.90;;
3343;SDS011;1685;53.104;8.228;2023-04-12T02:23:30;6.43;;;1.83;;
3343;SDS011;1685;53.104;8.228;2023-04-12T02:25:57;5.23;;;2.50;;
3343;SDS011;1685;53.104;8.228;2023-04-12T02:28:25;5.93;;;2.67;;
3343;SDS011;1685;53.104;8.228;2023-04-12T02:30:52;15.30;;;2.40;;
3343;SDS011;1685;53.104;8.228;2023-04-12T02:33:19;3.97;;;1.80;;
3343;SDS011;1685;53.104;8.228;2023-04-12T02:35:49;4.73;;;2.80;;
3343;SDS011;1685;53.104;8.228;2023-04-12T02:38:17;4.30;;;2.30;;
3343;SDS011;1685;53.104;8.228;2023-04-12T02:40:44;7.10;;;2.90;;
3343;SDS011;1685;53.104;8.228;2023-04-12T02:43:11;5.50;;;2.03;;
3343;SDS011;1685;53.104;8.228;2023-04-12T02:45:38;5.30;;;2.50;;
3343;SDS011;1685;53.104;8.228;2023-04-12T02:48:06;7.00;;;2.33;;
3343;SDS011;1685;53.104;8.228;2023-04-12T02:50:33;3.67;;;2.20;;
3343;SDS011;1685;53.104;8.228;2023-04-12T02:53:00;7.80;;;2.73;;
3343;SDS011;1685;53.104;8.228;2023-04-12T02:55:28;5.53;;;1.83;;
3343;SDS011;1685;53.104;8.228;2023-04-12T02:57:55;6.47;;;2.77;;
3343;SDS011;1685;53.104;8.228;2023-04-12T03:00:23;5.03;;;2.30;;
3343;SDS011;1685;53.104;8.228;2023-04-12T03:02:50;3.23;;;2.50;;
3343;SDS011;1685;53.104;8.228;2023-04-12T03:05:17;4.67;;;2.27;;
3343;SDS011;1685;53.104;8.228;2023-04-12T03:07:44;6.00;;;2.63;;
3343;SDS011;1685;53.104;8.228;2023-04-12T03:10:13;4.47;;;2.03;;
3343;SDS011;1685;53.104;8.228;2023-04-12T03:12:41;7.87;;;3.10;;
3343;SDS011;1685;53.104;8.228;2023-04-12T03:15:08;4.53;;;2.00;;
3343;SDS011;1685;53.104;8.228;2023-04-12T03:17:36;7.33;;;2.53;;
3343;SDS011;1685;53.104;8.228;2023-04-12T03:20:03;1.80;;;1.70;;
3343;SDS011;1685;53.104;8.228;2023-04-12T03:22:34;4.40;;;2.67;;
3343;SDS011;1685;53.104;8.228;2023-04-12T03:25:01;6.60;;;2.50;;
3343;SDS011;1685;53.104;8.228;2023-04-12T03:27:29;9.47;;;2.07;;
3343;SDS011;1685;53.104;8.228;2023-04-12T03:29:57;5.83;;;2.63;;
3343;SDS011;1685;53.104;8.228;2023-04-12T03:32:24;6.10;;;2.30;;
3343;SDS011;1685;53.104;8.228;2023-04-12T03:34:51;5.87;;;2.90;;
3343;SDS011;1685;53.104;8.228;2023-04-12T03:37:19;9.40;;;2.67;;
3343;SDS011;1685;53.104;8.228;2023-04-12T03:39:46;3.47;;;2.80;;
3343;SDS011;1685;53.104;8.228;2023-04-12T03:42:13;4.43;;;2.23;;
3343;SDS011;1685;53.104;8.228;2023-04-12T03:44:40;6.43;;;2.57;;
3343;SDS011;1685;53.104;8.228;2023-04-12T03:47:09;5.33;;;2.60;;
3343;SDS011;1685;53.104;8.228;2023-04-12T03:49:36;3.43;;;2.23;;
3343;SDS011;1685;53.104;8.228;2023-04-12T03:52:03;2.40;;;1.80;;
3343;SDS011;1685;53.104;8.228;2023-04-12T03:54:31;10.67;;;2.70;;
3343;SDS011;1685;53.104;8.228;2023-04-12T03:56:58;5.33;;;2.43;;
3343;SDS011;1685;53.104;8.228;2023-04-12T03:59:26;4.60;;;2.63;;
3343;SDS011;1685;53.104;8.228;2023-04-12T04:01:53;4.50;;;2.57;;
3343;SDS011;1685;53.104;8.228;2023-04-12T04:04:22;7.83;;;2.87;;
3343;SDS011;1685;53.104;8.228;2023-04-12T04:06:49;5.97;;;2.00;;
3343;SDS011;1685;53.104;8.228;2023-04-12T04:09:16;5.77;;;2.43;;
3343;SDS011;1685;53.104;8.228;2023-04-12T04:11:43;4.60;;;2.50;;
3343;SDS011;1685;53.104;8.228;2023-04-12T04:14:10;4.83;;;2.37;;
3343;SDS011;1685;53.104;8.228;2023-04-12T04:16:38;9.57;;;2.50;;
3343;SDS011;1685;53.104;8.228;2023-04-12T04:19:05;5.07;;;2.03;;
3343;SDS011;1685;53.104;8.228;2023-04-12T04:21:33;4.03;;;2.80;;
3343;SDS011;1685;53.104;8.228;2023-04-12T04:24:00;7.00;;;2.63;;
3343;SDS011;1685;53.104;8.228;2023-04-12T04:26:28;3.80;;;2.80;;
3343;SDS011;1685;53.104;8.228;2023-04-12T04:28:57;7.87;;;3.50;;
3343;SDS011;1685;53.104;8.228;2023-04-12T04:31:27;3.50;;;2.67;;
3343;SDS011;1685;53.104;8.228;2023-04-12T04:33:58;10.50;;;2.60;;
3343;SDS011;1685;53.104;8.228;2023-04-12T04:36:25;4.43;;;3.10;;
3343;SDS011;1685;53.104;8.228;2023-04-12T04:38:54;6.27;;;2.70;;
3343;SDS011;1685;53.104;8.228;2023-04-12T04:41:21;2.77;;;2.50;;
3343;SDS011;1685;53.104;8.228;2023-04-12T04:43:48;7.00;;;2.80;;
3343;SDS011;1685;53.104;8.228;2023-04-12T04:46:15;5.33;;;2.70;;
3343;SDS011;1685;53.104;8.228;2023-04-12T04:48:45;4.10;;;2.43;;
3343;SDS011;1685;53.104;8.228;2023-04-12T04:51:12;3.90;;;2.40;;
3343;SDS011;1685;53.104;8.228;2023-04-12T04:53:40;9.07;;;3.00;;
3343;SDS011;1685;53.104;8.228;2023-04-12T04:56:09;7.77;;;2.73;;
3343;SDS011;1685;53.104;8.228;2023-04-12T04:58:36;4.20;;;2.60;;
3343;SDS011;1685;53.104;8.228;2023-04-12T05:01:03;3.53;;;2.23;;
3343;SDS011;1685;53.104;8.228;2023-04-12T05:03:31;3.77;;;2.10;;
3343;SDS011;1685;53.104;8.228;2023-04-12T05:05:58;4.83;;;2.20;;
3343;SDS011;1685;53.104;8.228;2023-04-12T05:08:26;5.60;;;2.43;;
3343;SDS011;1685;53.104;8.228;2023-04-12T05:10:54;4.10;;;2.23;;
3343;SDS011;1685;53.104;8.228;2023-04-12T05:13:22;2.57;;;2.17;;
3343;SDS011;1685;53.104;8.228;2023-04-12T05:15:49;2.80;;;2.60;;
3343;SDS011;1685;53.104;8.228;2023-04-12T05:18:16;4.73;;;2.60;;
3343;SDS011;1685;53.104;8.228;2023-04-12T05:20:43;4.50;;;2.73;;
3343;SDS011;1685;53.104;8.228;2023-04-12T05:23:12;4.80;;;2.80;;
3343;SDS011;1685;53.104;8.228;2023-04-12T05:25:42;6.33;;;2.37;;
3343;SDS011;1685;53.104;8.228;2023-04-12T05:28:12;3.57;;;2.03;;
3343;SDS011;1685;53.104;8.228;2023-04-12T05:30:42;3.50;;;2.63;;
3343;SDS011;1685;53.104;8.228;2023-04-12T05:33:08;5.50;;;2.67;;
3343;SDS011;1685;53.104;8.228;2023-04-12T05:35:36;3.03;;;2.30;;
3343;SDS011;1685;53.104;8.228;2023-04-12T05:38:03;4.10;;;2.30;;
3343;SDS011;1685;53.104;8.228;2023-04-12T05:40:30;6.13;;;2.20;;
3343;SDS011;1685;53.104;8.228;2023-04-12T05:42:57;7.83;;;2.57;;
3343;SDS011;1685;53.104;8.228;2023-04-12T05:45:24;3.43;;;2.57;;
3343;SDS011;1685;53.104;8.228;2023-04-12T05:47:53;5.73;;;2.47;;
3343;SDS011;1685;53.104;8.228;2023-04-12T05:50:20;6.43;;;2.40;;
3343;SDS011;1685;53.104;8.228;2023-04-12T05:52:49;12.80;;;2.43;;
3343;SDS011;1685;53.104;8.228;2023-04-12T05:55:16;5.70;;;2.07;;
3343;SDS011;1685;53.104;8.228;2023-04-12T05:57:43;6.03;;;2.70;;
3343;SDS011;1685;53.104;8.228;2023-04-12T06:00:12;3.97;;;2.33;;
3343;SDS011;1685;53.104;8.228;2023-04-12T06:02:41;8.57;;;2.40;;
3343;SDS011;1685;53.104;8.228;2023-04-12T06:05:10;4.20;;;1.90;;
3343;SDS011;1685;53.104;8.228;2023-04-12T06:07:37;13.50;;;2.20;;
3343;SDS011;1685;53.104;8.228;2023-04-12T06:10:06;4.67;;;2.80;;
3343;SDS011;1685;53.104;8.228;2023-04-12T06:12:34;6.30;;;2.43;;
3343;SDS011;1685;53.104;8.228;2023-04-12T06:15:01;9.17;;;2.53;;
3343;SDS011;1685;53.104;8.228;2023-04-12T06:17:28;9.83;;;2.30;;
3343;SDS011;1685;53.104;8.228;2023-04-12T06:19:55;3.13;;;2.17;;
3343;SDS011;1685;53.104;8.228;2023-04-12T06:22:23;8.67;;;2.60;;
3343;SDS011;1685;53.104;8.228;2023-04-12T06:24:50;3.40;;;2.00;;
3343;SDS011;1685;53.104;8.228;2023-04-12T06:27:17;4.63;;;1.80;;
3343;SDS011;1685;53.104;8.228;2023-04-12T06:29:46;3.20;;;1.87;;
3343;SDS011;1685;53.104;8.228;2023-04-12T06:32:13;3.40;;;2.37;;
3343;SDS011;1685;53.104;8.228;2023-04-12T06:34:41;4.23;;;2.50;;
3343;SDS011;1685;53.104;8.228;2023-04-12T06:37:08;7.90;;;2.23;;
3343;SDS011;1685;53.104;8.228;2023-04-12T06:39:36;2.47;;;1.70;;
3343;SDS011;1685;53.104;8.228;2023-04-12T06:42:03;6.00;;;2.53;;
3343;SDS011;1685;53.104;8.228;2023-04-12T06:44:30;7.40;;;2.07;;
3343;SDS011;1685;53.104;8.228;2023-04-12T06:46:58;2.57;;;1.87;;
3343;SDS011;1685;53.104;8.228;2023-04-12T06:49:25;4.23;;;2.27;;
3343;SDS011;1685;53.104;8.228;2023-04-12T06:51:52;10.10;;;2.17;;
3343;SDS011;1685;53.104;8.228;2023-04-12T06:54:19;2.80;;;2.20;;
3343;SDS011;1685;53.104;8.228;2023-04-12T06:56:49;9.63;;;2.27;;
3343;SDS011;1685;53.104;8.228;2023-04-12T06:59:16;8.40;;;2.27;;
3343;SDS011;1685;53.104;8.228;2023-04-12T07:01:43;6.20;;;2.00;;
3343;SDS011;1685;53.104;8.228;2023-04-12T07:04:10;4.53;;;2.30;;
3343;SDS011;1685;53.104;8.228;2023-04-12T07:06:37;3.50;;;1.63;;
3343;SDS011;1685;53.104;8.228;2023-04-12T07:09:04;3.70;;;2.03;;
3343;SDS011;1685;53.104;8.228;2023-04-12T07:11:31;4.20;;;1.87;;
3343;SDS011;1685;53.104;8.228;2023-04-12T07:14:00;3.20;;;2.13;;
3343;SDS011;1685;53.104;8.228;2023-04-12T07:16:28;4.17;;;2.10;;
3343;SDS011;1685;53.104;8.228;2023-04-12T07:18:56;4.63;;;2.00;;
3343;SDS011;1685;53.104;8.228;2023-04-12T07:21:23;4.70;;;2.17;;
3343;SDS011;1685;53.104;8.228;2023-04-12T07:23:51;3.03;;;2.13;;
3343;SDS011;1685;53.104;8.228;2023-04-12T07:26:18;4.10;;;2.43;;
3343;SDS011;1685;53.104;8.228;2023-04-12T07:28:46;4.73;;;2.20;;
3343;SDS011;1685;53.104;8.228;2023-04-12T07:31:14;1.63;;;1.50;;
3343;SDS011;1685;53.104;8.228;2023-04-12T07:33:41;2.73;;;2.03;;
3343;SDS011;1685;53.104;8.228;2023-04-12T07:36:09;3.73;;;2.00;;
3343;SDS011;1685;53.104;8.228;2023-04-12T07:38:36;2.87;;;2.03;;
3343;SDS011;1685;53.104;8.228;2023-04-12T07:41:03;10.30;;;2.13;;
3343;SDS011;1685;53.104;8.228;2023-04-12T07:43:30;4.70;;;2.33;;
3343;SDS011;1685;53.104;8.228;2023-04-12T07:45:57;3.87;;;2.33;;
3343;SDS011;1685;53.104;8.228;2023-04-12T07:48:29;7.30;;;2.30;;
3343;SDS011;1685;53.104;8.228;2023-04-12T07:50:56;4.67;;;2.03;;
3343;SDS011;1685;53.104;8.228;2023-04-12T07:53:24;4.60;;;2.00;;
3343;SDS011;1685;53.104;8.228;2023-04-12T07:55:52;3.47;;;2.03;;
3343;SDS011;1685;53.104;8.228;2023-04-12T07:58:20;4.00;;;2.03;;
3343;SDS011;1685;53.104;8.228;2023-04-12T08:00:47;8.73;;;2.00;;
3343;SDS011;1685;53.104;8.228;2023-04-12T08:03:15;2.47;;;2.20;;
3343;SDS011;1685;53.104;8.228;2023-04-12T08:05:44;5.33;;;1.70;;
3343;SDS011;1685;53.104;8.228;2023-04-12T08:08:17;6.73;;;2.07;;
3343;SDS011;1685;53.104;8.228;2023-04-12T08:10:44;5.30;;;2.37;;
3343;SDS011;1685;53.104;8.228;2023-04-12T08:13:11;4.10;;;2.07;;
3343;SDS011;1685;53.104;8.228;2023-04-12T08:15:38;3.63;;;1.70;;
3343;SDS011;1685;53.104;8.228;2023-04-12T08:18:07;5.37;;;3.17;;
3343;SDS011;1685;53.104;8.228;2023-04-12T08:20:35;7.00;;;2.30;;
3343;SDS011;1685;53.104;8.228;2023-04-12T08:23:05;4.67;;;2.80;;
3343;SDS011;1685;53.104;8.228;2023-04-12T08:25:33;5.80;;;3.70;;
3343;SDS011;1685;53.104;8.228;2023-04-12T08:28:00;5.80;;;2.50;;
3343;SDS011;1685;53.104;8.228;2023-04-12T08:30:28;5.87;;;2.17;;
3343;SDS011;1685;53.104;8.228;2023-04-12T08:32:55;3.43;;;3.13;;
3343;SDS011;1685;53.104;8.228;2023-04-12T08:35:22;6.20;;;2.50;;
3343;SDS011;1685;53.104;8.228;2023-04-12T08:37:50;2.50;;;2.23;;
3343;SDS011;1685;53.104;8.228;2023-04-12T08:40:18;8.40;;;3.17;;
3343;SDS011;1685;53.104;8.228;2023-04-12T08:42:46;2.90;;;2.70;;
3343;SDS011;1685;53.104;8.228;2023-04-12T08:45:13;4.33;;;3.47;;
3343;SDS011;1685;53.104;8.228;2023-04-12T08:47:41;11.00;;;3.03;;
3343;SDS011;1685;53.104;8.228;2023-04-12T08:50:09;5.60;;;2.93;;
3343;SDS011;1685;53.104;8.228;2023-04-12T08:52:37;8.53;;;3.30;;
3343;SDS011;1685;53.104;8.228;2023-04-12T08:55:05;9.77;;;3.13;;
3343;SDS011;1685;53.104;8.228;2023-04-12T08:57:34;7.10;;;3.43;;
3343;SDS011;1685;53.104;8.228;2023-04-12T09:00:05;8.30;;;3.33;;
3343;SDS011;1685;53.104;8.228;2023-04-12T09:02:34;4.23;;;3.40;;
3343;SDS011;1685;53.104;8.228;2023-04-12T09:05:04;7.87;;;4.10;;
3343;SDS011;1685;53.104;8.228;2023-04-12T09:07:32;8.03;;;3.50;;
3343;SDS011;1685;53.104;8.228;2023-04-12T09:09:59;3.60;;;3.30;;
3343;SDS011;1685;53.104;8.228;2023-04-12T09:12:26;7.33;;;4.43;;
3343;SDS011;1685;53.104;8.228;2023-04-12T09:15:07;4.40;;;2.97;;
3343;SDS011;1685;53.104;8.228;2023-04-12T09:17:36;3.73;;;3.20;;
3343;SDS011;1685;53.104;8.228;2023-04-12T09:20:20;4.97;;;3.70;;
3343;SDS011;1685;53.104;8.228;2023-04-12T09:22:49;9.60;;;3.40;;
3343;SDS011;1685;53.104;8.228;2023-04-12T09:25:18;5.83;;;3.63;;
3343;SDS011;1685;53.104;8.228;2023-04-12T09:28:17;8.63;;;3.77;;
3343;SDS011;1685;53.104;8.228;2023-04-12T09:30:46;5.13;;;4.03;;
3343;SDS011;1685;53.104;8.228;2023-04-12T09:33:16;7.37;;;4.50;;
3343;SDS011;1685;53.104;8.228;2023-04-12T09:35:43;4.63;;;3.97;;
3343;SDS011;1685;53.104;8.228;2023-04-12T09:38:10;4.33;;;3.93;;
3343;SDS011;1685;53.104;8.228;2023-04-12T09:40:37;8.53;;;3.77;;
3343;SDS011;1685;53.104;8.228;2023-04-12T09:43:05;9.33;;;4.00;;
3343;SDS011;1685;53.104;8.228;2023-04-12T09:45:32;6.87;;;4.10;;
3343;SDS011;1685;53.104;8.228;2023-04-12T09:48:03;5.57;;;4.33;;
3343;SDS011;1685;53.104;8.228;2023-04-12T09:50:30;5.43;;;4.43;;
3343;SDS011;1685;53.104;8.228;2023-04-12T09:52:58;7.60;;;4.50;;
3343;SDS011;1685;53.104;8.228;2023-04-12T09:55:26;6.90;;;5.00;;
3343;SDS011;1685;53.104;8.228;2023-04-12T09:57:54;6.40;;;4.47;;
3343;SDS011;1685;53.104;8.228;2023-04-12T10:00:22;6.90;;;5.10;;
3343;SDS011;1685;53.104;8.228;2023-04-12T10:02:52;5.77;;;4.60;;
3343;SDS011;1685;53.104;8.228;2023-04-12T10:05:21;9.10;;;5.57;;
3343;SDS011;1685;53.104;8.228;2023-04-12T10:07:49;6.93;;;5.10;;
3343;SDS011;1685;53.104;8.228;2023-04-12T10:10:17;5.83;;;4.30;;
3343;SDS011;1685;53.104;8.228;2023-04-12T10:12:45;9.02;;;4.72;;
3343;SDS011;1685;53.104;8.228;2023-04-12T10:15:12;8.47;;;5.07;;
3343;SDS011;1685;53.104;8.228;2023-04-12T10:17:41;7.80;;;4.87;;
3343;SDS011;1685;53.104;8.228;2023-04-12T10:20:09;5.53;;;5.03;;
3343;SDS011;1685;53.104;8.228;2023-04-12T10:22:39;5.80;;;5.10;;
3343;SDS011;1685;53.104;8.228;2023-04-12T10:25:09;7.40;;;5.27;;
3343;SDS011;1685;53.104;8.228;2023-04-12T10:27:38;8.10;;;5.77;;
3343;SDS011;1685;53.104;8.228;2023-04-12T10:30:19;6.33;;;5.33;;
3343;SDS011;1685;53.104;8.228;2023-04-12T10:32:46;6.97;;;6.23;;
3343;SDS011;1685;53.104;8.228;2023-04-12T10:35:13;8.97;;;5.53;;
3343;SDS011;1685;53.104;8.228;2023-04-12T10:37:57;5.87;;;5.37;;
3343;SDS011;1685;53.104;8.228;2023-04-12T10:40:25;8.10;;;5.53;;
3343;SDS011;1685;53.104;8.228;2023-04-12T10:45:34;9.10;;;5.73;;
3343;SDS011;1685;53.104;8.228;2023-04-12T10:48:02;6.10;;;5.17;;
3343;SDS011;1685;53.104;8.228;2023-04-12T10:50:31;7.10;;;5.23;;
3343;SDS011;1685;53.104;8.228;2023-04-12T10:55:52;7.60;;;6.10;;
3343;SDS011;1685;53.104;8.228;2023-04-12T11:01:21;7.97;;;5.80;;
3343;SDS011;1685;53.104;8.228;2023-04-12T11:06:46;6.37;;;5.30;;
3343;SDS011;1685;53.104;8.228;2023-04-12T11:09:21;6.90;;;6.30;;
3343;SDS011;1685;53.104;8.228;2023-04-12T11:11:49;7.43;;;5.17;;
3343;SDS011;1685;53.104;8.228;2023-04-12T11:14:16;11.27;;;6.13;;
3343;SDS011;1685;53.104;8.228;2023-04-12T11:19:31;11.77;;;8.03;;
3343;SDS011;1685;53.104;8.228;2023-04-12T11:21:59;14.10;;;8.60;;
3343;SDS011;1685;53.104;8.228;2023-04-12T11:24:27;13.70;;;10.40;;
3343;SDS011;1685;53.104;8.228;2023-04-12T11:26:55;12.97;;;11.10;;
3343;SDS011;1685;53.104;8.228;2023-04-12T11:29:22;14.07;;;12.00;;
3343;SDS011;1685;53.104;8.228;2023-04-12T11:31:49;17.17;;;12.13;;
3343;SDS011;1685;53.104;8.228;2023-04-12T11:34:16;11.50;;;10.00;;
3343;SDS011;1685;53.104;8.228;2023-04-12T11:36:43;10.43;;;9.13;;
3343;SDS011;1685;53.104;8.228;2023-04-12T11:39:11;24.03;;;9.30;;
3343;SDS011;1685;53.104;8.228;2023-04-12T11:41:43;10.67;;;9.00;;
3343;SDS011;1685;53.104;8.228;2023-04-12T11:44:11;13.37;;;10.10;;
3343;SDS011;1685;53.104;8.228;2023-04-12T11:46:38;9.67;;;8.70;;
3343;SDS011;1685;53.104;8.228;2023-04-12T11:49:05;9.20;;;8.27;;
3343;SDS011;1685;53.104;8.228;2023-04-12T11:51:32;7.97;;;7.27;;
3343;SDS011;1685;53.104;8.228;2023-04-12T11:54:00;10.70;;;8.37;;
3343;SDS011;1685;53.104;8.228;2023-04-12T11:56:28;10.40;;;6.00;;
3343;SDS011;1685;53.104;8.228;2023-04-12T11:58:57;5.53;;;5.10;;
3343;SDS011;1685;53.104;8.228;2023-04-12T12:01:24;4.80;;;4.40;;
3343;SDS011;1685;53.104;8.228;2023-04-12T12:03:53;4.70;;;4.30;;
3343;SDS011;1685;53.104;8.228;2023-04-12T12:06:23;5.60;;;3.90;;
3343;SDS011;1685;53.104;8.228;2023-04-12T12:08:50;4.20;;;3.90;;
3343;SDS011;1685;53.104;8.228;2023-04-12T12:11:17;5.43;;;3.93;;
3343;SDS011;1685;53.104;8.228;2023-04-12T12:13:46;4.45;;;3.90;;
3343;SDS011;1685;53.104;8.228;2023-04-12T12:16:14;4.80;;;4.40;;
3343;SDS011;1685;53.104;8.228;2023-04-12T12:18:42;4.97;;;4.57;;
3343;SDS011;1685;53.104;8.228;2023-04-12T12:21:10;4.53;;;4.13;;
3343;SDS011;1685;53.104;8.228;2023-04-12T12:23:40;3.90;;;3.57;;
3343;SDS011;1685;53.104;8.228;2023-04-12T12:26:08;3.22;;;2.92;;
3343;SDS011;1685;53.104;8.228;2023-04-12T12:28:35;3.40;;;3.20;;
3343;SDS011;1685;53.104;8.228;2023-04-12T12:31:04;3.30;;;3.10;;
3343;SDS011;1685;53.104;8.228;2023-04-12T12:33:36;3.30;;;3.20;;
3343;SDS011;1685;53.104;8.228;2023-04-12T12:36:04;3.30;;;3.10;;
3343;SDS011;1685;53.104;8.228;2023-04-12T12:38:35;3.10;;;2.90;;
3343;SDS011;1685;53.104;8.228;2023-04-12T12:41:12;4.00;;;3.10;;
3343;SDS011;1685;53.104;8.228;2023-04-12T12:43:43;3.10;;;2.90;;
3343;SDS011;1685;53.104;8.228;2023-04-12T12:46:10;2.80;;;2.60;;
3343;SDS011;1685;53.104;8.228;2023-04-12T12:48:39;3.70;;;3.13;;
3343;SDS011;1685;53.104;8.228;2023-04-12T12:51:06;3.53;;;3.23;;
3343;SDS011;1685;53.104;8.228;2023-04-12T12:53:34;2.97;;;2.78;;
3343;SDS011;1685;53.104;8.228;2023-04-12T12:56:01;3.58;;;2.75;;
3343;SDS011;1685;53.104;8.228;2023-04-12T12:58:28;3.23;;;3.03;;
3343;SDS011;1685;53.104;8.228;2023-04-12T13:00:55;3.10;;;2.90;;
3343;SDS011;1685;53.104;8.228;2023-04-12T13:03:22;3.77;;;3.47;;
3343;SDS011;1685;53.104;8.228;2023-04-12T13:05:51;3.60;;;3.27;;
3343;SDS011;1685;53.104;8.228;2023-04-12T13:08:17;3.63;;;3.30;;
3343;SDS011;1685;53.104;8.228;2023-04-12T13:10:45;3.83;;;3.53;;
3343;SDS011;1685;53.104;8.228;2023-04-12T13:13:12;3.50;;;3.30;;
3343;SDS011;1685;53.104;8.228;2023-04-12T13:15:39;3.07;;;2.97;;
3343;SDS011;1685;53.104;8.228;2023-04-12T13:18:06;4.03;;;3.10;;
3343;SDS011;1685;53.104;8.228;2023-04-12T13:20:33;4.13;;;3.93;;
3343;SDS011;1685;53.104;8.228;2023-04-12T13:23:02;3.90;;;3.70;;
3343;SDS011;1685;53.104;8.228;2023-04-12T13:25:28;3.67;;;3.47;;
3343;SDS011;1685;53.104;8.228;2023-04-12T13:27:58;3.40;;;3.10;;
3343;SDS011;1685;53.104;8.228;2023-04-12T13:30:24;3.20;;;3.00;;
3343;SDS011;1685;53.104;8.228;2023-04-12T13:32:52;3.50;;;3.30;;
3343;SDS011;1685;53.104;8.228;2023-04-12T13:35:19;3.60;;;3.30;;
3343;SDS011;1685;53.104;8.228;2023-04-12T13:37:46;3.47;;;3.27;;
3343;SDS011;1685;53.104;8.228;2023-04-12T13:40:15;3.53;;;3.33;;
3343;SDS011;1685;53.104;8.228;2023-04-12T13:42:41;4.20;;;3.90;;
3343;SDS011;1685;53.104;8.228;2023-04-12T13:45:09;4.23;;;3.93;;
3343;SDS011;1685;53.104;8.228;2023-04-12T13:47:37;3.67;;;3.47;;
3343;SDS011;1685;53.104;8.228;2023-04-12T13:50:05;3.93;;;3.73;;
3343;SDS011;1685;53.104;8.228;2023-04-12T13:52:32;3.47;;;3.30;;
3343;SDS011;1685;53.104;8.228;2023-04-12T13:55:02;3.87;;;3.13;;
3343;SDS011;1685;53.104;8.228;2023-04-12T13:57:33;3.90;;;3.70;;
3343;SDS011;1685;53.104;8.228;2023-04-12T14:00:00;3.80;;;3.60;;
3343;SDS011;1685;53.104;8.228;2023-04-12T14:02:27;3.90;;;3.60;;
3343;SDS011;1685;53.104;8.228;2023-04-12T14:04:54;4.30;;;3.90;;
3343;SDS011;1685;53.104;8.228;2023-04-12T14:07:21;3.90;;;3.20;;
3343;SDS011;1685;53.104;8.228;2023-04-12T14:09:48;4.93;;;4.57;;
3343;SDS011;1685;53.104;8.228;2023-04-12T14:12:16;3.90;;;3.70;;
3343;SDS011;1685;53.104;8.228;2023-04-12T14:14:44;3.67;;;3.47;;
3343;SDS011;1685;53.104;8.228;2023-04-12T14:17:11;3.80;;;3.60;;
3343;SDS011;1685;53.104;8.228;2023-04-12T14:19:38;3.67;;;3.47;;
3343;SDS011;1685;53.104;8.228;2023-04-12T14:22:05;3.30;;;3.10;;
3343;SDS011;1685;53.104;8.228;2023-04-12T14:24:32;4.00;;;3.80;;
3343;SDS011;1685;53.104;8.228;2023-04-12T14:26:59;3.90;;;3.70;;
3343;SDS011;1685;53.104;8.228;2023-04-12T14:29:28;3.90;;;3.70;;
3343;SDS011;1685;53.104;8.228;2023-04-12T14:31:57;3.33;;;3.13;;
3343;SDS011;1685;53.104;8.228;2023-04-12T14:34:24;4.30;;;4.00;;
3343;SDS011;1685;53.104;8.228;2023-04-12T14:36:51;4.13;;;3.83;;
3343;SDS011;1685;53.104;8.228;2023-04-12T14:39:18;7.00;;;4.70;;
3343;SDS011;1685;53.104;8.228;2023-04-12T14:41:48;4.07;;;3.87;;
3343;SDS011;1685;53.104;8.228;2023-04-12T14:44:15;4.60;;;3.83;;
3343;SDS011;1685;53.104;8.228;2023-04-12T14:46:42;4.40;;;4.00;;
3343;SDS011;1685;53.104;8.228;2023-04-12T14:49:10;3.60;;;3.40;;
3343;SDS011;1685;53.104;8.228;2023-04-12T14:51:38;4.27;;;3.90;;
3343;SDS011;1685;53.104;8.228;2023-04-12T14:54:05;4.23;;;3.93;;
3343;SDS011;1685;53.104;8.228;2023-04-12T14:56:32;3.60;;;3.40;;
3343;SDS011;1685;53.104;8.228;2023-04-12T14:59:00;3.73;;;3.53;;
3343;SDS011;1685;53.104;8.228;2023-04-12T15:01:28;4.70;;;4.40;;
3343;SDS011;1685;53.104;8.228;2023-04-12T15:03:55;4.90;;;4.50;;
3343;SDS011;1685;53.104;8.228;2023-04-12T15:06:26;4.40;;;4.10;;
3343;SDS011;1685;53.104;8.228;2023-04-12T15:08:57;4.27;;;3.97;;
3343;SDS011;1685;53.104;8.228;2023-04-12T15:11:24;4.37;;;3.97;;
3343;SDS011;1685;53.104;8.228;2023-04-12T15:13:52;4.13;;;3.73;;
3343;SDS011;1685;53.104;8.228;2023-04-12T15:16:19;4.90;;;4.50;;
3343;SDS011;1685;53.104;8.228;2023-04-12T15:18:46;4.20;;;3.90;;
3343;SDS011;1685;53.104;8.228;2023-04-12T15:21:13;5.13;;;4.63;;
3343;SDS011;1685;53.104;8.228;2023-04-12T15:23:41;3.70;;;3.50;;
3343;SDS011;1685;53.104;8.228;2023-04-12T15:26:09;4.87;;;4.47;;
3343;SDS011;1685;53.104;8.228;2023-04-12T15:28:37;4.17;;;3.87;;
3343;SDS011;1685;53.104;8.228;2023-04-12T15:31:05;4.13;;;3.70;;
3343;SDS011;1685;53.104;8.228;2023-04-12T15:33:33;4.23;;;3.90;;
3343;SDS011;1685;53.104;8.228;2023-04-12T15:36:01;4.40;;;4.00;;